sensor_id;sensor_type;location;lat;lon;timestamp;temperature;humidity
9311;DHT22;4694;52.464;13.480;2023-06-22T00:02:01;20.20;99.90
9311;DHT22;4694;52.464;13.480;2023-06-22T00:04:28;20.20;99.90
9311;DHT22;4694;52.464;13.480;2023-06-22T00:06:55;20.20;99.90
9311;DHT22;4694;52.464;13.480;2023-06-22T00:09:21;20.20;99.90
9311;DHT22;4694;52.464;13.480;2023-06-22T00:11:48;20.20;99.90
9311;DHT22;4694;52.464;13.480;2023-06-22T00:14:14;20.10;99.90
9311;DHT22;4694;52.464;13.480;2023-06-22T00:16:42;20.20;99.90
9311;DHT22;4694;52.464;13.480;2023-06-22T00:19:09;20.10;99.90
9311;DHT22;4694;52.464;13.480;2023-06-22T00:21:37;20.20;99.90
9311;DHT22;4694;52.464;13.480;2023-06-22T00:24:04;20.10;99.90
9311;DHT22;4694;52.464;13.480;2023-06-22T00:26:32;20.00;99.90
9311;DHT22;4694;52.464;13.480;2023-06-22T00:28:58;20.00;99.90
9311;DHT22;4694;52.464;13.480;2023-06-22T00:31:25;20.00;99.90
9311;DHT22;4694;52.464;13.480;2023-06-22T00:33:53;19.90;99.90
9311;DHT22;4694;52.464;13.480;2023-06-22T00:36:20;19.90;99.90
9311;DHT22;4694;52.464;13.480;2023-06-22T00:38:50;19.90;99.90
9311;DHT22;4694;52.464;13.480;2023-06-22T00:41:17;19.90;99.90
9311;DHT22;4694;52.464;13.480;2023-06-22T00:43:43;19.90;99.90
9311;DHT22;4694;52.464;13.480;2023-06-22T00:46:10;19.80;99.90
9311;DHT22;4694;52.464;13.480;2023-06-22T00:48:37;19.80;99.90
9311;DHT22;4694;52.464;13.480;2023-06-22T00:51:06;19.80;99.90
9311;DHT22;4694;52.464;13.480;2023-06-22T00:53:33;19.70;99.90
9311;DHT22;4694;52.464;13.480;2023-06-22T00:56:02;19.70;99.90
9311;DHT22;4694;52.464;13.480;2023-06-22T00:58:29;19.70;99.90
9311;DHT22;4694;52.464;13.480;2023-06-22T01:00:56;19.70;99.90
9311;DHT22;4694;52.464;13.480;2023-06-22T01:03:23;19.70;99.90
9311;DHT22;4694;52.464;13.480;2023-06-22T01:05:50;19.60;99.90
9311;DHT22;4694;52.464;13.480;2023-06-22T01:08:27;19.70;99.90
9311;DHT22;4694;52.464;13.480;2023-06-22T01:11:00;19.70;99.90
9311;DHT22;4694;52.464;13.480;2023-06-22T01:13:35;19.60;99.90
9311;DHT22;4694;52.464;13.480;2023-06-22T01:16:09;19.60;99.90
9311;DHT22;4694;52.464;13.480;2023-06-22T01:18:40;19.60;99.90
9311;DHT22;4694;52.464;13.480;2023-06-22T01:21:08;19.50;99.90
9311;DHT22;4694;52.464;13.480;2023-06-22T01:23:51;19.60;99.90
9311;DHT22;4694;52.464;13.480;2023-06-22T01:26:28;19.60;99.90
9311;DHT22;4694;52.464;13.480;2023-06-22T01:29:04;19.60;99.90
9311;DHT22;4694;52.464;13.480;2023-06-22T01:31:32;19.60;99.90
9311;DHT22;4694;52.464;13.480;2023-06-22T01:34:02;19.50;99.90
9311;DHT22;4694;52.464;13.480;2023-06-22T01:36:32;19.50;99.90
9311;DHT22;4694;52.464;13.480;2023-06-22T01:38:59;19.50;99.90
9311;DHT22;4694;52.464;13.480;2023-06-22T01:41:29;19.50;99.90
9311;DHT22;4694;52.464;13.480;2023-06-22T01:43:56;19.50;99.90
9311;DHT22;4694;52.464;13.480;2023-06-22T01:46:25;19.50;99.90
9311;DHT22;4694;52.464;13.480;2023-06-22T01:48:51;19.50;99.90
9311;DHT22;4694;52.464;13.480;2023-06-22T01:51:19;19.60;99.90
9311;DHT22;4694;52.464;13.480;2023-06-22T01:53:45;19.60;99.90
9311;DHT22;4694;52.464;13.480;2023-06-22T01:56:13;19.60;99.90
9311;DHT22;4694;52.464;13.480;2023-06-22T01:58:47;19.60;99.90
9311;DHT22;4694;52.464;13.480;2023-06-22T02:01:22;19.60;99.90
9311;DHT22;4694;52.464;13.480;2023-06-22T02:03:55;19.70;99.90
9311;DHT22;4694;52.464;13.480;2023-06-22T02:06:30;19.70;99.90
9311;DHT22;4694;52.464;13.480;2023-06-22T02:09:02;19.80;99.90
9311;DHT22;4694;52.464;13.480;2023-06-22T02:11:33;19.80;99.90
9311;DHT22;4694;52.464;13.480;2023-06-22T02:14:01;19.90;99.90
9311;DHT22;4694;52.464;13.480;2023-06-22T02:16:30;19.90;99.90
9311;DHT22;4694;52.464;13.480;2023-06-22T02:19:01;19.90;99.90
9311;DHT22;4694;52.464;13.480;2023-06-22T02:21:29;19.90;99.90
9311;DHT22;4694;52.464;13.480;2023-06-22T02:23:56;19.90;99.90
9311;DHT22;4694;52.464;13.480;2023-06-22T02:26:24;19.90;99.90
9311;DHT22;4694;52.464;13.480;2023-06-22T02:28:51;20.00;99.90
9311;DHT22;4694;52.464;13.480;2023-06-22T02:31:18;19.90;99.90
9311;DHT22;4694;52.464;13.480;2023-06-22T02:33:45;19.90;99.90
9311;DHT22;4694;52.464;13.480;2023-06-22T02:36:13;19.90;99.90
9311;DHT22;4694;52.464;13.480;2023-06-22T02:38:41;19.90;99.90
9311;DHT22;4694;52.464;13.480;2023-06-22T02:41:13;19.90;99.90
9311;DHT22;4694;52.464;13.480;2023-06-22T02:43:43;20.00;99.90
9311;DHT22;4694;52.464;13.480;2023-06-22T02:46:10;20.00;99.90
9311;DHT22;4694;52.464;13.480;2023-06-22T02:48:37;20.00;99.90
9311;DHT22;4694;52.464;13.480;2023-06-22T02:51:03;20.00;99.90
9311;DHT22;4694;52.464;13.480;2023-06-22T02:53:31;20.00;99.90
9311;DHT22;4694;52.464;13.480;2023-06-22T02:55:58;20.00;99.90
9311;DHT22;4694;52.464;13.480;2023-06-22T02:58:26;20.00;99.90
9311;DHT22;4694;52.464;13.480;2023-06-22T03:00:53;20.00;99.90
9311;DHT22;4694;52.464;13.480;2023-06-22T03:03:20;20.00;99.90
9311;DHT22;4694;52.464;13.480;2023-06-22T03:05:46;20.00;99.90
9311;DHT22;4694;52.464;13.480;2023-06-22T03:08:13;20.00;99.90
9311;DHT22;4694;52.464;13.480;2023-06-22T03:10:41;20.00;99.90
9311;DHT22;4694;52.464;13.480;2023-06-22T03:13:08;20.00;99.90
9311;DHT22;4694;52.464;13.480;2023-06-22T03:15:34;20.00;99.90
9311;DHT22;4694;52.464;13.480;2023-06-22T03:18:01;20.00;99.90
9311;DHT22;4694;52.464;13.480;2023-06-22T03:20:28;19.90;99.90
9311;DHT22;4694;52.464;13.480;2023-06-22T03:22:58;19.90;99.90
9311;DHT22;4694;52.464;13.480;2023-06-22T03:25:25;19.90;99.90
9311;DHT22;4694;52.464;13.480;2023-06-22T03:27:53;19.80;99.90
9311;DHT22;4694;52.464;13.480;2023-06-22T03:30:21;19.80;99.90
9311;DHT22;4694;52.464;13.480;2023-06-22T03:32:48;19.80;99.90
9311;DHT22;4694;52.464;13.480;2023-06-22T03:35:15;19.80;99.90
9311;DHT22;4694;52.464;13.480;2023-06-22T03:37:41;19.80;99.90
9311;DHT22;4694;52.464;13.480;2023-06-22T03:40:09;19.80;99.90
9311;DHT22;4694;52.464;13.480;2023-06-22T03:42:36;19.70;99.90
9311;DHT22;4694;52.464;13.480;2023-06-22T03:45:04;19.70;99.90
9311;DHT22;4694;52.464;13.480;2023-06-22T03:47:32;19.70;99.90
9311;DHT22;4694;52.464;13.480;2023-06-22T03:49:59;19.70;99.90
9311;DHT22;4694;52.464;13.480;2023-06-22T03:52:25;19.70;99.90
9311;DHT22;4694;52.464;13.480;2023-06-22T03:54:52;19.60;99.90
9311;DHT22;4694;52.464;13.480;2023-06-22T03:57:19;19.70;99.90
9311;DHT22;4694;52.464;13.480;2023-06-22T03:59:45;19.60;99.90
9311;DHT22;4694;52.464;13.480;2023-06-22T04:02:13;19.60;99.90
9311;DHT22;4694;52.464;13.480;2023-06-22T04:04:40;19.60;99.90
9311;DHT22;4694;52.464;13.480;2023-06-22T04:07:06;19.60;99.90
9311;DHT22;4694;52.464;13.480;2023-06-22T04:09:34;19.60;99.90
9311;DHT22;4694;52.464;13.480;2023-06-22T04:12:01;19.60;99.90
9311;DHT22;4694;52.464;13.480;2023-06-22T04:14:28;19.60;99.90
9311;DHT22;4694;52.464;13.480;2023-06-22T04:16:54;19.70;99.90
9311;DHT22;4694;52.464;13.480;2023-06-22T04:19:22;19.70;99.90
9311;DHT22;4694;52.464;13.480;2023-06-22T04:21:49;19.80;99.90
9311;DHT22;4694;52.464;13.480;2023-06-22T04:24:15;19.80;99.90
9311;DHT22;4694;52.464;13.480;2023-06-22T04:26:42;19.80;99.90
9311;DHT22;4694;52.464;13.480;2023-06-22T04:29:11;19.80;99.90
9311;DHT22;4694;52.464;13.480;2023-06-22T04:31:38;19.90;99.90
9311;DHT22;4694;52.464;13.480;2023-06-22T04:34:06;19.90;99.90
9311;DHT22;4694;52.464;13.480;2023-06-22T04:36:38;19.90;99.90
9311;DHT22;4694;52.464;13.480;2023-06-22T04:39:06;20.00;99.90
9311;DHT22;4694;52.464;13.480;2023-06-22T04:41:35;20.10;99.90
9311;DHT22;4694;52.464;13.480;2023-06-22T04:44:09;20.20;99.90
9311;DHT22;4694;52.464;13.480;2023-06-22T04:46:36;20.30;99.90
9311;DHT22;4694;52.464;13.480;2023-06-22T04:49:05;20.30;99.90
9311;DHT22;4694;52.464;13.480;2023-06-22T04:51:39;20.30;99.90
9311;DHT22;4694;52.464;13.480;2023-06-22T04:54:07;20.50;99.90
9311;DHT22;4694;52.464;13.480;2023-06-22T04:56:34;20.60;99.90
9311;DHT22;4694;52.464;13.480;2023-06-22T04:59:01;20.70;99.90
9311;DHT22;4694;52.464;13.480;2023-06-22T05:01:28;20.90;99.90
9311;DHT22;4694;52.464;13.480;2023-06-22T05:03:56;21.10;99.90
9311;DHT22;4694;52.464;13.480;2023-06-22T05:06:24;21.10;99.90
9311;DHT22;4694;52.464;13.480;2023-06-22T05:08:53;21.30;99.90
9311;DHT22;4694;52.464;13.480;2023-06-22T05:11:24;21.30;99.90
9311;DHT22;4694;52.464;13.480;2023-06-22T05:13:50;21.50;99.90
9311;DHT22;4694;52.464;13.480;2023-06-22T05:16:17;21.40;99.90
9311;DHT22;4694;52.464;13.480;2023-06-22T05:18:53;21.50;99.90
9311;DHT22;4694;52.464;13.480;2023-06-22T05:21:22;21.60;99.90
9311;DHT22;4694;52.464;13.480;2023-06-22T05:23:49;21.60;99.90
9311;DHT22;4694;52.464;13.480;2023-06-22T05:26:18;21.70;99.90
9311;DHT22;4694;52.464;13.480;2023-06-22T05:28:45;21.70;99.90
9311;DHT22;4694;52.464;13.480;2023-06-22T05:31:14;21.70;99.90
9311;DHT22;4694;52.464;13.480;2023-06-22T05:33:42;21.80;99.90
9311;DHT22;4694;52.464;13.480;2023-06-22T05:36:09;22.00;99.90
9311;DHT22;4694;52.464;13.480;2023-06-22T05:38:36;22.10;99.90
9311;DHT22;4694;52.464;13.480;2023-06-22T05:41:03;22.20;99.90
9311;DHT22;4694;52.464;13.480;2023-06-22T05:43:31;22.30;99.90
9311;DHT22;4694;52.464;13.480;2023-06-22T05:45:58;22.40;99.90
9311;DHT22;4694;52.464;13.480;2023-06-22T05:48:24;22.60;99.90
9311;DHT22;4694;52.464;13.480;2023-06-22T05:50:51;22.90;99.90
9311;DHT22;4694;52.464;13.480;2023-06-22T05:53:18;23.00;99.90
9311;DHT22;4694;52.464;13.480;2023-06-22T05:55:44;23.10;99.90
9311;DHT22;4694;52.464;13.480;2023-06-22T05:58:11;23.20;99.90
9311;DHT22;4694;52.464;13.480;2023-06-22T06:00:40;23.20;99.90
9311;DHT22;4694;52.464;13.480;2023-06-22T06:03:08;23.30;99.90
9311;DHT22;4694;52.464;13.480;2023-06-22T06:05:36;23.30;99.90
9311;DHT22;4694;52.464;13.480;2023-06-22T06:08:05;23.20;99.90
9311;DHT22;4694;52.464;13.480;2023-06-22T06:10:32;23.20;99.90
9311;DHT22;4694;52.464;13.480;2023-06-22T06:12:58;23.20;99.90
9311;DHT22;4694;52.464;13.480;2023-06-22T06:15:27;23.20;99.90
9311;DHT22;4694;52.464;13.480;2023-06-22T06:17:55;23.10;99.90
9311;DHT22;4694;52.464;13.480;2023-06-22T06:20:24;23.10;99.90
9311;DHT22;4694;52.464;13.480;2023-06-22T06:22:51;23.10;99.90
9311;DHT22;4694;52.464;13.480;2023-06-22T06:25:18;23.30;99.90
9311;DHT22;4694;52.464;13.480;2023-06-22T06:27:48;23.60;99.90
9311;DHT22;4694;52.464;13.480;2023-06-22T06:30:16;24.10;99.90
9311;DHT22;4694;52.464;13.480;2023-06-22T06:32:44;24.60;99.90
9311;DHT22;4694;52.464;13.480;2023-06-22T06:35:13;24.90;99.90
9311;DHT22;4694;52.464;13.480;2023-06-22T06:37:43;25.40;99.90
9311;DHT22;4694;52.464;13.480;2023-06-22T06:40:11;25.80;99.90
9311;DHT22;4694;52.464;13.480;2023-06-22T06:42:39;26.10;99.90
9311;DHT22;4694;52.464;13.480;2023-06-22T06:45:08;26.30;99.90
9311;DHT22;4694;52.464;13.480;2023-06-22T06:47:34;26.40;99.90
9311;DHT22;4694;52.464;13.480;2023-06-22T06:50:02;26.70;99.90
9311;DHT22;4694;52.464;13.480;2023-06-22T06:52:31;27.10;99.90
9311;DHT22;4694;52.464;13.480;2023-06-22T06:54:58;27.40;99.90
9311;DHT22;4694;52.464;13.480;2023-06-22T06:57:24;27.70;99.90
9311;DHT22;4694;52.464;13.480;2023-06-22T06:59:54;28.00;99.90
9311;DHT22;4694;52.464;13.480;2023-06-22T07:02:21;28.50;99.90
9311;DHT22;4694;52.464;13.480;2023-06-22T07:04:48;28.60;99.90
9311;DHT22;4694;52.464;13.480;2023-06-22T07:07:15;28.50;99.90
9311;DHT22;4694;52.464;13.480;2023-06-22T07:09:43;28.40;99.90
9311;DHT22;4694;52.464;13.480;2023-06-22T07:12:10;28.20;99.90
9311;DHT22;4694;52.464;13.480;2023-06-22T07:14:36;27.60;99.90
9311;DHT22;4694;52.464;13.480;2023-06-22T07:17:03;28.00;99.90
9311;DHT22;4694;52.464;13.480;2023-06-22T07:19:30;28.30;99.90
9311;DHT22;4694;52.464;13.480;2023-06-22T07:21:57;28.70;99.70
9311;DHT22;4694;52.464;13.480;2023-06-22T07:24:24;28.90;97.70
9311;DHT22;4694;52.464;13.480;2023-06-22T07:26:53;29.30;97.70
9311;DHT22;4694;52.464;13.480;2023-06-22T07:29:19;29.50;96.80
9311;DHT22;4694;52.464;13.480;2023-06-22T07:31:47;29.70;96.50
9311;DHT22;4694;52.464;13.480;2023-06-22T07:34:15;29.80;95.70
9311;DHT22;4694;52.464;13.480;2023-06-22T07:36:42;30.30;95.70
9311;DHT22;4694;52.464;13.480;2023-06-22T07:39:08;30.10;95.10
9311;DHT22;4694;52.464;13.480;2023-06-22T07:41:35;30.10;95.60
9311;DHT22;4694;52.464;13.480;2023-06-22T07:44:03;29.80;95.40
9311;DHT22;4694;52.464;13.480;2023-06-22T07:46:31;29.60;94.90
9311;DHT22;4694;52.464;13.480;2023-06-22T07:48:58;29.70;95.10
9311;DHT22;4694;52.464;13.480;2023-06-22T07:51:26;29.20;95.00
9311;DHT22;4694;52.464;13.480;2023-06-22T07:53:53;29.10;95.20
9311;DHT22;4694;52.464;13.480;2023-06-22T07:56:21;29.10;94.50
9311;DHT22;4694;52.464;13.480;2023-06-22T07:58:48;29.10;94.40
9311;DHT22;4694;52.464;13.480;2023-06-22T08:01:16;28.70;95.00
9311;DHT22;4694;52.464;13.480;2023-06-22T08:03:46;28.60;95.30
9311;DHT22;4694;52.464;13.480;2023-06-22T08:06:13;28.50;96.20
9311;DHT22;4694;52.464;13.480;2023-06-22T08:08:40;28.50;95.60
9311;DHT22;4694;52.464;13.480;2023-06-22T08:11:08;28.30;95.20
9311;DHT22;4694;52.464;13.480;2023-06-22T08:13:34;28.30;95.30
9311;DHT22;4694;52.464;13.480;2023-06-22T08:16:01;28.10;95.40
9311;DHT22;4694;52.464;13.480;2023-06-22T08:18:29;27.90;95.40
9311;DHT22;4694;52.464;13.480;2023-06-22T08:20:56;27.90;95.70
9311;DHT22;4694;52.464;13.480;2023-06-22T08:23:24;27.80;95.70
9311;DHT22;4694;52.464;13.480;2023-06-22T08:25:50;27.90;95.00
9311;DHT22;4694;52.464;13.480;2023-06-22T08:28:17;27.90;94.20
9311;DHT22;4694;52.464;13.480;2023-06-22T08:30:44;27.80;93.40
9311;DHT22;4694;52.464;13.480;2023-06-22T08:33:10;27.80;93.80
9311;DHT22;4694;52.464;13.480;2023-06-22T08:35:39;27.70;93.70
9311;DHT22;4694;52.464;13.480;2023-06-22T08:38:06;27.70;92.50
9311;DHT22;4694;52.464;13.480;2023-06-22T08:40:33;27.70;92.80
9311;DHT22;4694;52.464;13.480;2023-06-22T08:42:59;27.70;92.50
9311;DHT22;4694;52.464;13.480;2023-06-22T08:45:26;27.70;92.80
9311;DHT22;4694;52.464;13.480;2023-06-22T08:47:53;27.70;92.40
9311;DHT22;4694;52.464;13.480;2023-06-22T08:50:19;27.80;92.10
9311;DHT22;4694;52.464;13.480;2023-06-22T08:52:48;27.80;91.30
9311;DHT22;4694;52.464;13.480;2023-06-22T08:55:15;28.40;91.70
9311;DHT22;4694;52.464;13.480;2023-06-22T08:57:41;29.00;91.00
9311;DHT22;4694;52.464;13.480;2023-06-22T09:00:10;29.60;90.70
9311;DHT22;4694;52.464;13.480;2023-06-22T09:02:41;29.90;90.30
9311;DHT22;4694;52.464;13.480;2023-06-22T09:05:09;29.50;89.00
9311;DHT22;4694;52.464;13.480;2023-06-22T09:07:35;29.60;88.40
9311;DHT22;4694;52.464;13.480;2023-06-22T09:10:04;29.40;89.10
9311;DHT22;4694;52.464;13.480;2023-06-22T09:12:31;29.30;88.70
9311;DHT22;4694;52.464;13.480;2023-06-22T09:14:58;29.50;89.80
9311;DHT22;4694;52.464;13.480;2023-06-22T09:17:25;29.60;88.50
9311;DHT22;4694;52.464;13.480;2023-06-22T09:19:52;29.80;87.80
9311;DHT22;4694;52.464;13.480;2023-06-22T09:22:19;29.90;87.30
9311;DHT22;4694;52.464;13.480;2023-06-22T09:24:46;30.00;85.10
9311;DHT22;4694;52.464;13.480;2023-06-22T09:27:14;30.20;84.90
9311;DHT22;4694;52.464;13.480;2023-06-22T09:29:40;30.60;86.00
9311;DHT22;4694;52.464;13.480;2023-06-22T09:32:07;30.80;84.60
9311;DHT22;4694;52.464;13.480;2023-06-22T09:34:34;30.40;82.20
9311;DHT22;4694;52.464;13.480;2023-06-22T09:37:00;30.00;83.10
9311;DHT22;4694;52.464;13.480;2023-06-22T09:39:27;30.00;84.60
9311;DHT22;4694;52.464;13.480;2023-06-22T09:41:54;30.20;84.10
9311;DHT22;4694;52.464;13.480;2023-06-22T09:44:22;30.10;83.80
9311;DHT22;4694;52.464;13.480;2023-06-22T09:46:48;30.00;83.60
9311;DHT22;4694;52.464;13.480;2023-06-22T09:49:15;30.00;83.40
9311;DHT22;4694;52.464;13.480;2023-06-22T09:51:42;30.00;83.40
9311;DHT22;4694;52.464;13.480;2023-06-22T09:54:08;29.90;83.70
9311;DHT22;4694;52.464;13.480;2023-06-22T09:56:35;29.80;84.10
9311;DHT22;4694;52.464;13.480;2023-06-22T09:59:03;30.10;84.80
9311;DHT22;4694;52.464;13.480;2023-06-22T10:01:31;30.10;83.70
9311;DHT22;4694;52.464;13.480;2023-06-22T10:03:57;30.40;84.40
9311;DHT22;4694;52.464;13.480;2023-06-22T10:06:24;30.60;84.00
9311;DHT22;4694;52.464;13.480;2023-06-22T10:08:51;30.70;81.30
9311;DHT22;4694;52.464;13.480;2023-06-22T10:11:18;30.30;79.80
9311;DHT22;4694;52.464;13.480;2023-06-22T10:13:45;30.40;80.90
9311;DHT22;4694;52.464;13.480;2023-06-22T10:16:12;30.90;81.60
9311;DHT22;4694;52.464;13.480;2023-06-22T10:18:40;31.20;79.60
9311;DHT22;4694;52.464;13.480;2023-06-22T10:21:06;31.50;78.00
9311;DHT22;4694;52.464;13.480;2023-06-22T10:23:33;31.50;77.20
9311;DHT22;4694;52.464;13.480;2023-06-22T10:26:00;31.70;76.30
9311;DHT22;4694;52.464;13.480;2023-06-22T10:28:26;32.20;75.70
9311;DHT22;4694;52.464;13.480;2023-06-22T10:30:53;32.10;74.60
9311;DHT22;4694;52.464;13.480;2023-06-22T10:33:20;32.50;74.90
9311;DHT22;4694;52.464;13.480;2023-06-22T10:35:48;32.80;73.60
9311;DHT22;4694;52.464;13.480;2023-06-22T10:38:14;33.30;73.10
9311;DHT22;4694;52.464;13.480;2023-06-22T10:40:41;33.60;70.60
9311;DHT22;4694;52.464;13.480;2023-06-22T10:43:08;34.00;70.50
9311;DHT22;4694;52.464;13.480;2023-06-22T10:45:34;33.80;68.70
9311;DHT22;4694;52.464;13.480;2023-06-22T10:48:01;33.90;68.20
9311;DHT22;4694;52.464;13.480;2023-06-22T10:50:28;34.00;68.80
9311;DHT22;4694;52.464;13.480;2023-06-22T10:52:56;33.90;67.80
9311;DHT22;4694;52.464;13.480;2023-06-22T10:55:22;34.00;67.40
9311;DHT22;4694;52.464;13.480;2023-06-22T10:57:49;34.30;67.30
9311;DHT22;4694;52.464;13.480;2023-06-22T11:00:17;34.90;66.90
9311;DHT22;4694;52.464;13.480;2023-06-22T11:02:44;35.20;66.20
9311;DHT22;4694;52.464;13.480;2023-06-22T11:05:11;35.60;65.10
9311;DHT22;4694;52.464;13.480;2023-06-22T11:07:38;35.70;63.80
9311;DHT22;4694;52.464;13.480;2023-06-22T11:10:09;35.60;62.80
9311;DHT22;4694;52.464;13.480;2023-06-22T11:12:36;36.10;62.80
9311;DHT22;4694;52.464;13.480;2023-06-22T11:15:03;36.00;61.50
9311;DHT22;4694;52.464;13.480;2023-06-22T11:17:30;36.20;62.50
9311;DHT22;4694;52.464;13.480;2023-06-22T11:19:57;35.90;61.50
9311;DHT22;4694;52.464;13.480;2023-06-22T11:22:25;36.00;60.40
9311;DHT22;4694;52.464;13.480;2023-06-22T11:24:52;36.10;60.70
9311;DHT22;4694;52.464;13.480;2023-06-22T11:27:20;36.10;60.50
9311;DHT22;4694;52.464;13.480;2023-06-22T11:29:47;35.90;60.00
9311;DHT22;4694;52.464;13.480;2023-06-22T11:32:13;35.60;60.40
9311;DHT22;4694;52.464;13.480;2023-06-22T11:34:40;35.90;60.50
9311;DHT22;4694;52.464;13.480;2023-06-22T11:37:07;36.30;60.00
9311;DHT22;4694;52.464;13.480;2023-06-22T11:39:33;36.80;59.80
9311;DHT22;4694;52.464;13.480;2023-06-22T11:42:00;37.00;58.40
9311;DHT22;4694;52.464;13.480;2023-06-22T11:44:28;37.50;57.70
9311;DHT22;4694;52.464;13.480;2023-06-22T11:46:54;37.80;57.60
9311;DHT22;4694;52.464;13.480;2023-06-22T11:49:21;38.10;58.10
9311;DHT22;4694;52.464;13.480;2023-06-22T11:51:48;38.50;56.50
9311;DHT22;4694;52.464;13.480;2023-06-22T11:54:14;38.70;55.90
9311;DHT22;4694;52.464;13.480;2023-06-22T11:56:41;38.80;55.40
9311;DHT22;4694;52.464;13.480;2023-06-22T11:59:08;39.30;55.30
9311;DHT22;4694;52.464;13.480;2023-06-22T12:01:36;39.50;54.70
9311;DHT22;4694;52.464;13.480;2023-06-22T12:04:02;39.30;54.50
9311;DHT22;4694;52.464;13.480;2023-06-22T12:06:31;39.40;54.40
9311;DHT22;4694;52.464;13.480;2023-06-22T12:08:57;39.10;53.30
9311;DHT22;4694;52.464;13.480;2023-06-22T12:11:24;39.60;53.40
9311;DHT22;4694;52.464;13.480;2023-06-22T12:13:51;39.90;53.40
9311;DHT22;4694;52.464;13.480;2023-06-22T12:16:17;40.30;53.20
